33D00
43.21.63N 005.51.13W
IN73BI aprs.fi
zuletzt gehoert:
2022-08-01T05:01:42Z
zuerst gehoert:
2020-11-07T13:42:10Z

APRS Oviedo [IN73BI], 2 Stunde(n), 33D00 [15:29:34, 0s].
EA1YR 43.22.10N 005.51.89WIN73BI 1.743km 321°NW13:17:57ZJesus(3EA1YR-1)
Jesus via DMR+ EA1YR(2EA1YR-7)
EA1L 43.20.37N 005.51.13WIN73BI 1.851km 182°S13:25:11Zea1l@ure.es V=13.4V
Wind 247°/003kn, Böen bis 009kn, Temp 20.56c, Regen 0.5mm, letzte 24h 21.1mm, seit 0h 21.1mm, Baro 1016.5h, Hum: 0%(2EA1L-13)
LEHU 43.22.63N 005.49.57WIN73CJ 3.075km 41°NE13:00:04ZHelipuerto del HUCA: LEAS 171200Z 31011KT 260V350 9999 SCT020 21/16 Q1017 TEMPO RA=
ED1ZAU 43.23.04N 005.52.75WIN73BJ 3.823km 324°NW13:02:28ZRD625 438.5000/430.9000 CC1
EA1HWX 43.19.28N 005.50.98WIN73BH 3.890km 178°S13:01:19ZDMO - UHF 439.7250/431.0000 CC11(3EA1HWX-2)
MMDVM DMO 222.3400/222.3400 CC1(2EA1HWX-10)
EC1AE 43.22.72N 005.47.55WIN73CJ 5.372km 62°ENE13:06:35Z`EC1AE - FM & Digital C4FM._%(3EC1AE-9)
EA1ABW 43.24.77N 005.47.77WIN73CJ 7.711km 35°NE13:00:12ZMMDVM MMDVM HS Hat 439.8250/439.8250 CC1(3EA1ABW-1)
MMDVM MMDVM HS Hat 439.8250/439.8250 CC1(2EA1ABW-2)
LEMR 43.25.83N 005.49.60WIN73CK 8.483km 13°NNE13:00:04ZAerodromo de la Morgal (123.500MHz): LEAS 171200Z 31011KT 260V350 9999 SCT020 21/16 Q1017 TEMPO RA=
LEGM 43.26.15N 005.49.84WIN73CK 9.016km 11°N13:00:04ZHelipuerto de La Morgal (123.500MHz): LEAS 171200Z 31011KT 260V350 9999 SCT020 21/16 Q1017 TEMPO RA=
EA1IPU 43.26.21N 005.46.62WIN73CK 10.795km 34°NE13:01:04ZMMDVM MMDVM HS Hat 439.8000/439.8000 CC1(3EA1IPU-1)
EA1IMW 43.14.36N 005.46.93WIN73CF 14.156km 157°SSE13:01:57ZGRUPO RADIO GALENA (GRG) 430.4500/430.4500 CC1(3EA1IMW-1)
EA1FIQ 43.20.18N 006.01.80WIN63XI 14.631km 261°W13:00:39Z440 MMDVM Voice 438.17500MHz +0.0000MHz, EA1FIQ_Pi-Star_ND(3EA1FIQ-N)
440 MMDVM Voice 438.17500MHz +0.0000MHz, APRS for DMRGateway(2EA1FIQ-D)
MMDVM MMDVM HS Dual Hat 438.1750/438.1750 CC1(2EA1FIQ-1)
ED1ZAY 43.29.47N 005.56.54WIN73AL 16.722km 334°NNW13:02:28ZRD625 438.3000/430.7000 CC1
EA1JBL 43.12.28N 005.47.42WIN73CE 17.544km 164°SSE13:01:42ZMMDVM DVMega 435.3000/435.3000 CC1
EB1DGC 43.12.60N 005.45.59WIN73CF 17.865km 156°SSE13:01:48ZMMDVM MMDVM HS Hat 433.4500/433.4500 CC1
ED1ZAS 43.27.52N 005.40.17WIN73DL 18.579km 52°NE13:02:30ZRD985 438.2250/430.6250 CC1
ED1ZAE 43.27.99N 005.40.54WIN73DL 18.733km 49°NE13:19:50Z400 M. PICO SAN MARTIN (GIJON) 13.3V,19.3C(3ED1ZAE-3)
EA1FLQ 43.22.00N 005.36.35WIN73EI 19.861km 87°E13:00:42ZMMDVM DVMega 430.9750/430.9750 CC1
EA1CLT 43.32.67N 005.54.43WIN73BN 21.422km 348°NNW13:00:24Z440 MMDVM Voice 432.10000MHz +0.0000MHz, APRS for DMRGateway(3EA1CLT-D)
MMDVM MMDVM HS Hat 432.1000/432.1000 CC1(2EA1CLT-2)
EA1AHA 43.32.72N 005.54.38WIN73BN 21.499km 348°NNW13:01:00ZWind 180°/016kn, Böen bis 020kn, Temp 21.11c, Regen 16.8mm, letzte 24h 134.9mm, seit 0h 134.9mm, Baro 1019.2h, Hum: 71%(3EA1AHA-13)
EA1RCG 43.09.45N 005.49.78WIN73CD 22.152km 175°S13:02:09ZGRUPO RADIO GALENA (GRG) 430.4500/430.4500 CC1(3EA1RCG-3)
EA4ACU 43.29.56N 005.38.92WIN73EL 22.309km 47°NE13:02:04ZMMDVM MMDVM HS Hat 432.7000/432.7000 CC1(3EA4ACU-1)
EB1TK 43.32.22N 005.42.32WIN73DM 23.306km 30°NNE13:20:17ZWind 264°/011kn, Böen bis 019kn, Temp 21.67c, Regen 0.0mm, letzte 24h 26.9mm, seit 0h 26.9mm, Baro 1020.4h, Hum: 78%(3EB1TK-13)
EA1FFA 43.31.53N 005.40.64WIN73DM 23.490km 37°NE13:00:50ZMMDVM MMDVM HS Hat 438.8000/438.8000 CC1(3EA1FFA-1)
EA1DZR 43.31.48N 005.40.00WIN73EM 23.928km 38°NE13:01:21ZMMDVM DVMega 431.1000/431.1000 CC1(3EA1DZR-1)
MMDVM MMDVM HS Hat 432.1000/432.1000 CC2(2EA1DZR-2)
MMDVM DV ADER 434.3500/434.3500 CC1(2EA1DZR-4)
EA1IEJ 43.31.81N 005.40.17WIN73DM 24.284km 37°NE13:00:55ZMMDVM DMO 222.3400/222.3400 CC1(3EA1IEJ-11)
MMDVM MMDVM HS Hat 438.8500/438.8500 CC6(2EA1IEJ-1)
LEEL 43.32.98N 005.41.71WIN73DN 24.912km 30°NNE13:00:04ZHelipuerto de El Musel: LEAS 171200Z 31011KT 260V350 9999 SCT020 21/16 Q1017 TEMPO RA=
EB1EHT 43.32.47N 005.40.40WIN73DM 25.067km 35°NE12:30:16ZMMDVM MMDVM HS Hat 433.5550/433.5550 CC1(3EB1EHT-1)
EB1GEM 43.30.00N 005.36.07WIN73EM 25.763km 52°NE13:25:31ZWX3in1Plus2.0 U=13.3V,T=??.?C/??.?F(3EB1GEM-3)
ED1ZAD 43.07.90N 005.38.52WIN73ED 30.160km 146°SE13:21:51ZED1ZAD-3 APRS Digi/Igate(3ED1ZAD-3)
EA1HJA 43.28.10N 005.30.45WIN73FL 30.432km 66°ENE13:20:27Z IN73FL WX3IN1+ 2.0 - V=13.9V,TX TEMP=45.3C
EA1HJA@URE.ES(2EA1HJA-2)
EA1JW 43.31.35N 005.28.83WIN73GM 35.177km 58°ENE13:00:26ZMMDVM MMDVM HS Hat 436.5000/436.5000 CC1(3EA1JW-3)
EA1FHR 43.28.72N 005.26.41WIN73GL 35.868km 68°ENE13:00:57ZMMDVM MMDVM HS Hat 439.1500/439.1500 CC1
EA1JAY 43.29.33N 005.26.78WIN73GL 35.874km 66°ENE13:15:04Z434.525MHz Nodo TETRA DMO(3EA1JAY-4)
EA1JAY(2EA1JAY-2)
EA1HWD 43.28.96N 005.26.30WIN73GL 36.187km 67°ENE13:01:47ZMMDVM MMDVM HS Hat 434.2500/434.2500 CC1
EC1KV 43.34.01N 006.16.01WIN63UN 40.893km 305°NW13:22:48Z VOLT.=13.7 V - TEMP.=??.? C(3EC1KV-1)
LETN 43.20.05N 006.22.69WIN63TI 42.682km 267°W13:00:04ZAerodromo de La Curiscada (Tineo): LEAS 171200Z 31011KT 260V350 9999 SCT020 21/16 Q1017 TEMPO RA=

aprs.pl 5.0.011w DL3EL © 2006-2021 [4454103]